createdAt,value
2018-11-06T00:00:58.165Z,0.00
2018-11-06T00:01:58.143Z,0.00
2018-11-06T00:02:58.120Z,0.00
2018-11-06T00:03:58.098Z,0.00
2018-11-06T00:04:58.073Z,0.00
2018-11-06T00:05:58.054Z,0.00
2018-11-06T00:06:58.022Z,0.00
2018-11-06T00:07:57.987Z,0.00
2018-11-06T00:08:57.975Z,0.00
2018-11-06T00:09:57.958Z,0.00
2018-11-06T00:10:57.964Z,0.00
2018-11-06T00:11:57.908Z,0.00
2018-11-06T00:12:57.873Z,0.00
2018-11-06T00:13:57.865Z,0.00
2018-11-06T00:14:57.838Z,0.00
2018-11-06T00:15:57.814Z,0.00
2018-11-06T00:16:57.795Z,0.00
2018-11-06T00:17:57.770Z,0.00
2018-11-06T00:18:57.749Z,0.00
2018-11-06T00:19:57.731Z,0.00
2018-11-06T00:20:57.702Z,0.00
2018-11-06T00:21:57.678Z,0.00
2018-11-06T00:22:57.657Z,0.00
2018-11-06T00:23:57.624Z,0.00
2018-11-06T00:24:57.595Z,0.00
2018-11-06T00:25:57.573Z,0.00
2018-11-06T00:26:57.558Z,0.00
2018-11-06T00:27:57.541Z,0.00
2018-11-06T00:28:57.510Z,0.00
2018-11-06T00:29:57.495Z,0.00
2018-11-06T00:30:57.466Z,0.00
2018-11-06T00:31:57.449Z,0.00
2018-11-06T00:32:57.413Z,0.00
2018-11-06T00:33:57.408Z,0.00
2018-11-06T00:34:57.359Z,0.00
2018-11-06T00:35:57.354Z,0.00
2018-11-06T00:36:57.324Z,0.00
2018-11-06T00:37:57.313Z,0.00
2018-11-06T00:38:57.280Z,0.00
2018-11-06T00:39:57.256Z,0.00
2018-11-06T00:40:57.237Z,0.00
2018-11-06T00:41:57.208Z,0.00
2018-11-06T00:42:57.198Z,0.00
2018-11-06T00:43:57.172Z,0.00
2018-11-06T00:44:57.149Z,0.00
2018-11-06T00:45:57.121Z,0.00
2018-11-06T00:46:57.106Z,0.00
2018-11-06T00:47:57.082Z,0.00
2018-11-06T00:48:57.055Z,0.00
2018-11-06T00:49:57.027Z,0.00
2018-11-06T00:50:57.018Z,0.00
2018-11-06T00:51:56.974Z,0.00
2018-11-06T00:52:56.942Z,0.00
2018-11-06T00:53:56.940Z,0.00
2018-11-06T00:54:56.912Z,0.00
2018-11-06T00:55:56.890Z,0.00
2018-11-06T00:56:56.870Z,0.00
2018-11-06T00:57:56.846Z,0.00
2018-11-06T00:58:56.818Z,0.00
2018-11-06T00:59:56.860Z,0.00
2018-11-06T01:00:56.777Z,0.00
2018-11-06T01:01:56.753Z,0.00
2018-11-06T01:02:56.732Z,0.00
2018-11-06T01:03:56.709Z,0.00
2018-11-06T01:04:56.680Z,0.00
2018-11-06T01:05:56.659Z,0.00
2018-11-06T01:06:56.639Z,0.00
2018-11-06T01:07:56.611Z,0.00
2018-11-06T01:08:56.594Z,0.00
2018-11-06T01:09:56.560Z,0.00
2018-11-06T01:10:56.545Z,0.00
2018-11-06T01:11:56.514Z,0.00
2018-11-06T01:12:56.491Z,0.00
2018-11-06T01:13:56.478Z,0.00
2018-11-06T01:14:56.453Z,0.00
2018-11-06T01:15:56.412Z,0.00
2018-11-06T01:16:56.406Z,0.00
2018-11-06T01:17:56.367Z,0.00
2018-11-06T01:18:56.359Z,0.00
2018-11-06T01:19:56.338Z,0.00
2018-11-06T01:20:56.314Z,0.00
2018-11-06T01:21:56.286Z,0.00
2018-11-06T01:22:56.269Z,0.00
2018-11-06T01:23:56.248Z,0.00
2018-11-06T01:24:56.218Z,0.00
2018-11-06T01:25:56.204Z,0.00
2018-11-06T01:26:56.172Z,0.00
2018-11-06T01:27:56.134Z,0.00
2018-11-06T01:28:56.113Z,0.00
2018-11-06T01:29:56.090Z,0.00
2018-11-06T01:30:56.084Z,0.00
2018-11-06T01:31:56.056Z,0.00
2018-11-06T01:32:56.020Z,0.00
2018-11-06T01:33:56.012Z,0.00
2018-11-06T01:34:55.985Z,0.00
2018-11-06T01:35:55.948Z,0.00
2018-11-06T01:36:55.945Z,0.00
2018-11-06T01:37:55.918Z,0.00
2018-11-06T01:38:55.890Z,0.00
2018-11-06T01:39:55.858Z,0.00
2018-11-06T01:40:55.853Z,0.00
2018-11-06T01:41:55.830Z,0.00
2018-11-06T01:42:55.802Z,0.00
2018-11-06T01:43:55.781Z,0.00
2018-11-06T01:44:55.754Z,0.00
2018-11-06T01:45:55.730Z,0.00
2018-11-06T01:46:55.711Z,0.00
2018-11-06T01:47:55.683Z,0.00
2018-11-06T01:48:55.665Z,0.00
2018-11-06T01:49:55.641Z,0.00
2018-11-06T01:50:55.618Z,0.00
2018-11-06T01:51:55.598Z,0.00
2018-11-06T01:52:55.567Z,0.00
2018-11-06T01:53:55.552Z,0.00
2018-11-06T01:54:55.512Z,0.00
2018-11-06T01:55:55.491Z,0.00
2018-11-06T01:56:55.471Z,0.00
2018-11-06T01:57:55.456Z,0.00
2018-11-06T01:58:55.430Z,0.00
2018-11-06T01:59:55.409Z,0.00
2018-11-06T02:00:55.384Z,0.00
2018-11-06T02:01:55.366Z,0.00
2018-11-06T02:02:55.344Z,0.00
2018-11-06T02:03:55.316Z,0.00
2018-11-06T02:04:55.294Z,0.00
2018-11-06T02:05:55.273Z,0.00
2018-11-06T02:06:55.247Z,0.00
2018-11-06T02:07:55.228Z,0.00
2018-11-06T02:08:55.206Z,0.00
2018-11-06T02:09:55.177Z,0.00
2018-11-06T02:10:55.158Z,0.00
2018-11-06T02:11:55.145Z,0.00
2018-11-06T02:12:55.106Z,0.00
2018-11-06T02:13:55.073Z,0.00
2018-11-06T02:14:55.048Z,0.00
2018-11-06T02:15:55.037Z,0.00
2018-11-06T02:16:55.015Z,0.00
2018-11-06T02:17:55.001Z,0.00
2018-11-06T02:18:54.953Z,0.00
2018-11-06T02:19:54.939Z,0.00
2018-11-06T02:20:54.921Z,0.00
2018-11-06T02:21:54.906Z,0.00
2018-11-06T02:22:54.876Z,0.00
2018-11-06T02:23:54.845Z,0.00
2018-11-06T02:24:54.833Z,0.00
2018-11-06T02:25:54.810Z,0.00
2018-11-06T02:26:54.790Z,0.00
2018-11-06T02:27:54.761Z,0.00
2018-11-06T02:28:54.742Z,0.00
2018-11-06T02:29:54.724Z,0.00
2018-11-06T02:30:54.682Z,0.00
2018-11-06T02:31:54.677Z,0.00
2018-11-06T02:32:54.647Z,0.00
2018-11-06T02:33:54.623Z,0.00
2018-11-06T02:34:54.607Z,0.00
2018-11-06T02:35:54.581Z,0.00
2018-11-06T02:36:54.545Z,0.00
2018-11-06T02:37:54.542Z,0.00
2018-11-06T02:38:54.498Z,0.00
2018-11-06T02:39:54.486Z,0.00
2018-11-06T02:40:54.449Z,0.00
2018-11-06T02:41:54.437Z,0.00
2018-11-06T02:42:54.421Z,0.00
2018-11-06T02:43:54.380Z,0.00
2018-11-06T02:44:54.369Z,0.00
2018-11-06T02:45:54.349Z,0.00
2018-11-06T02:46:54.328Z,0.00
2018-11-06T02:47:54.307Z,0.00
2018-11-06T02:48:54.266Z,0.00
2018-11-06T02:49:54.252Z,0.00
2018-11-06T02:50:54.237Z,0.00
2018-11-06T02:51:54.209Z,0.00
2018-11-06T02:52:54.187Z,0.00
2018-11-06T02:53:54.163Z,0.00
2018-11-06T02:54:54.126Z,0.00
2018-11-06T02:55:54.291Z,0.00
2018-11-06T02:56:54.095Z,0.00
2018-11-06T02:57:54.070Z,0.00
2018-11-06T02:58:54.050Z,0.00
2018-11-06T02:59:54.022Z,0.00
2018-11-06T03:00:54.004Z,0.00
2018-11-06T03:01:53.983Z,0.00
2018-11-06T03:02:53.955Z,0.00
2018-11-06T03:03:53.927Z,0.00
2018-11-06T03:04:53.911Z,0.00
2018-11-06T03:05:53.886Z,0.00
2018-11-06T03:06:53.865Z,0.00
2018-11-06T03:07:53.838Z,0.00
2018-11-06T03:08:53.818Z,0.00
2018-11-06T03:09:53.778Z,0.00
2018-11-06T03:10:53.772Z,0.00
2018-11-06T03:11:53.728Z,0.00
2018-11-06T03:12:53.707Z,0.00
2018-11-06T03:13:53.700Z,0.00
2018-11-06T03:14:53.661Z,0.00
2018-11-06T03:15:53.653Z,0.00
2018-11-06T03:16:53.675Z,0.00
2018-11-06T03:17:53.600Z,0.00
2018-11-06T03:18:53.579Z,0.00
2018-11-06T03:19:53.570Z,0.00
2018-11-06T03:20:53.534Z,0.00
2018-11-06T03:21:53.517Z,0.00
2018-11-06T03:22:53.485Z,0.00
2018-11-06T03:23:53.474Z,0.00
2018-11-06T03:24:53.454Z,0.00
2018-11-06T03:25:53.421Z,0.00
2018-11-06T03:26:53.451Z,0.00
2018-11-06T03:27:53.369Z,0.00
2018-11-06T03:28:53.339Z,0.00
2018-11-06T03:29:53.327Z,0.00
2018-11-06T03:30:53.293Z,0.00
2018-11-06T03:31:53.261Z,0.00
2018-11-06T03:32:53.255Z,0.00
2018-11-06T03:33:53.229Z,0.00
2018-11-06T03:34:53.210Z,0.00
2018-11-06T03:35:53.184Z,0.00
2018-11-06T03:36:53.165Z,0.00
2018-11-06T03:37:53.136Z,0.00
2018-11-06T03:38:53.117Z,0.00
2018-11-06T03:39:53.093Z,0.00
2018-11-06T03:40:53.069Z,0.00
2018-11-06T03:41:53.097Z,0.00
2018-11-06T03:42:53.025Z,0.00
2018-11-06T03:43:53.006Z,0.00
2018-11-06T03:44:52.975Z,0.00
2018-11-06T03:45:52.959Z,0.00
2018-11-06T03:46:52.933Z,0.00
2018-11-06T03:47:52.916Z,0.00
2018-11-06T03:48:52.886Z,0.00
2018-11-06T03:49:52.862Z,0.00
2018-11-06T03:50:52.840Z,0.00
2018-11-06T03:51:52.817Z,0.00
2018-11-06T03:52:52.791Z,0.00
2018-11-06T03:53:52.778Z,0.00
2018-11-06T03:54:52.731Z,0.00
2018-11-06T03:55:52.719Z,0.00
2018-11-06T03:56:52.680Z,0.00
2018-11-06T03:57:52.661Z,0.00
2018-11-06T03:58:52.654Z,0.00
2018-11-06T03:59:52.626Z,0.00
2018-11-06T04:00:52.607Z,0.00
2018-11-06T04:01:52.587Z,0.00
2018-11-06T04:02:52.559Z,0.00
2018-11-06T04:03:52.538Z,0.00
2018-11-06T04:04:52.522Z,0.00
2018-11-06T04:05:52.490Z,0.00
2018-11-06T04:06:52.457Z,0.00
2018-11-06T04:07:52.436Z,0.00
2018-11-06T04:08:52.405Z,0.00
2018-11-06T04:09:52.387Z,0.00
2018-11-06T04:10:52.374Z,0.00
2018-11-06T04:11:52.348Z,0.00
2018-11-06T04:12:52.329Z,0.00
2018-11-06T04:13:52.308Z,0.00
2018-11-06T04:14:52.270Z,0.00
2018-11-06T04:15:52.249Z,0.00
2018-11-06T04:16:52.231Z,0.00
2018-11-06T04:17:52.198Z,0.00
2018-11-06T04:18:52.172Z,0.00
2018-11-06T04:19:52.160Z,0.00
2018-11-06T04:20:52.143Z,0.00
2018-11-06T04:21:52.123Z,0.00
2018-11-06T04:22:52.096Z,0.00
2018-11-06T04:23:52.076Z,0.00
2018-11-06T04:24:52.049Z,0.00
2018-11-06T04:25:52.025Z,0.00
2018-11-06T04:26:52.004Z,0.00
2018-11-06T04:27:51.983Z,0.00
2018-11-06T04:28:51.960Z,0.00
2018-11-06T04:29:51.934Z,0.00
2018-11-06T04:30:51.910Z,0.00
2018-11-06T04:31:51.886Z,0.00
2018-11-06T04:32:51.865Z,0.00
2018-11-06T04:33:51.837Z,0.00
2018-11-06T04:34:51.803Z,0.00
2018-11-06T04:35:51.776Z,0.00
2018-11-06T04:36:51.756Z,0.00
2018-11-06T04:37:51.751Z,0.00
2018-11-06T04:38:51.728Z,0.00
2018-11-06T04:39:51.704Z,0.00
2018-11-06T04:40:51.673Z,0.00
2018-11-06T04:41:51.653Z,0.00
2018-11-06T04:42:51.634Z,0.00
2018-11-06T04:43:51.607Z,0.00
2018-11-06T04:44:51.583Z,0.00
2018-11-06T04:45:51.563Z,0.00
2018-11-06T04:46:51.533Z,0.00
2018-11-06T04:47:51.520Z,0.00
2018-11-06T04:48:51.493Z,0.00
2018-11-06T04:49:51.472Z,0.00
2018-11-06T04:50:51.444Z,0.00
2018-11-06T04:51:51.419Z,0.00
2018-11-06T04:52:51.383Z,0.00
2018-11-06T04:53:51.376Z,0.00
2018-11-06T04:54:51.355Z,0.00
2018-11-06T04:55:51.326Z,0.00
2018-11-06T04:56:51.306Z,0.00
2018-11-06T04:57:51.287Z,0.00
2018-11-06T04:58:51.241Z,0.00
2018-11-06T04:59:51.235Z,0.00
2018-11-06T05:00:51.197Z,0.00
2018-11-06T05:01:51.218Z,0.00
2018-11-06T05:02:51.168Z,0.00
2018-11-06T05:03:51.130Z,0.00
2018-11-06T05:04:51.122Z,0.00
2018-11-06T05:05:51.094Z,0.00
2018-11-06T05:06:51.093Z,0.00
2018-11-06T05:07:51.048Z,0.00
2018-11-06T05:08:51.024Z,0.00
2018-11-06T05:09:51.011Z,0.00
2018-11-06T05:10:50.965Z,0.00
2018-11-06T05:11:50.942Z,0.00
2018-11-06T05:12:50.929Z,0.00
2018-11-06T05:13:50.969Z,0.00
2018-11-06T05:14:50.889Z,0.00
2018-11-06T05:15:50.863Z,0.00
2018-11-06T05:16:50.821Z,0.00
2018-11-06T05:17:50.809Z,0.00
2018-11-06T05:18:50.788Z,0.00
2018-11-06T05:19:50.750Z,0.00
2018-11-06T05:20:50.727Z,0.00
2018-11-06T05:21:50.713Z,0.00
2018-11-06T05:22:50.698Z,0.00
2018-11-06T05:23:50.657Z,0.00
2018-11-06T05:24:50.649Z,0.00
2018-11-06T05:25:50.624Z,0.00
2018-11-06T05:26:50.601Z,0.00
2018-11-06T05:27:50.579Z,0.00
2018-11-06T05:28:50.556Z,0.00
2018-11-06T05:29:50.533Z,0.00
2018-11-06T05:30:50.510Z,0.00
2018-11-06T05:31:50.491Z,0.00
2018-11-06T05:32:50.497Z,0.00
2018-11-06T05:33:50.441Z,0.00
2018-11-06T05:34:50.516Z,0.00
2018-11-06T05:35:50.394Z,0.00
2018-11-06T05:36:50.374Z,0.00
2018-11-06T05:37:50.328Z,0.00
2018-11-06T05:38:50.329Z,0.00
2018-11-06T05:39:50.287Z,0.00
2018-11-06T05:40:50.264Z,0.00
2018-11-06T05:41:50.241Z,0.00
2018-11-06T05:42:50.229Z,0.00
2018-11-06T05:43:50.227Z,0.00
2018-11-06T05:44:50.177Z,0.00
2018-11-06T05:45:50.162Z,0.00
2018-11-06T05:46:50.125Z,0.00
2018-11-06T05:47:50.112Z,0.00
2018-11-06T05:48:50.085Z,0.00
2018-11-06T05:49:50.068Z,0.00
2018-11-06T05:50:50.042Z,0.00
2018-11-06T05:51:50.024Z,0.00
2018-11-06T05:52:49.994Z,0.00
2018-11-06T05:53:49.971Z,0.00
2018-11-06T05:54:49.952Z,0.00
2018-11-06T05:55:49.921Z,0.00
2018-11-06T05:56:49.901Z,0.00
2018-11-06T05:57:49.879Z,0.00
2018-11-06T05:58:49.854Z,0.00
2018-11-06T05:59:49.829Z,0.00
2018-11-06T06:00:49.808Z,0.00
2018-11-06T06:01:49.787Z,0.00
2018-11-06T06:02:49.758Z,0.00
2018-11-06T06:03:49.722Z,0.00
2018-11-06T06:04:49.701Z,0.00
2018-11-06T06:05:49.690Z,0.00
2018-11-06T06:06:49.663Z,0.00
2018-11-06T06:07:49.642Z,0.00
2018-11-06T06:08:49.620Z,0.00
2018-11-06T06:09:49.598Z,0.00
2018-11-06T06:10:49.584Z,0.00
2018-11-06T06:11:49.557Z,0.00
2018-11-06T06:12:49.531Z,0.00
2018-11-06T06:13:49.507Z,0.00
2018-11-06T06:14:49.479Z,0.00
2018-11-06T06:15:49.444Z,0.00
2018-11-06T06:16:49.441Z,0.00
2018-11-06T06:17:49.409Z,0.00
2018-11-06T06:18:49.379Z,0.00
2018-11-06T06:19:49.361Z,0.00
2018-11-06T06:20:49.337Z,0.00
2018-11-06T06:21:49.318Z,0.00
2018-11-06T06:22:49.279Z,0.00
2018-11-06T06:23:49.271Z,0.00
2018-11-06T06:24:49.229Z,0.00
2018-11-06T06:25:49.212Z,0.00
2018-11-06T06:26:49.202Z,0.00
2018-11-06T06:27:49.157Z,0.00
2018-11-06T06:28:49.149Z,0.00
2018-11-06T06:29:49.125Z,0.00
2018-11-06T06:30:49.111Z,0.00
2018-11-06T06:31:49.081Z,0.00
2018-11-06T06:32:49.044Z,0.00
2018-11-06T06:33:49.037Z,0.00
2018-11-06T06:34:49.036Z,0.00
2018-11-06T06:35:48.986Z,0.00
2018-11-06T06:36:48.966Z,0.00
2018-11-06T06:37:48.943Z,0.00
2018-11-06T06:38:48.982Z,0.00
2018-11-06T06:39:48.891Z,0.00
2018-11-06T06:40:48.931Z,0.00
2018-11-06T06:41:48.833Z,0.00
2018-11-06T06:42:48.812Z,0.00
2018-11-06T06:43:48.787Z,0.00
2018-11-06T06:44:48.775Z,0.00
2018-11-06T06:45:48.741Z,0.00
2018-11-06T06:46:48.734Z,0.00
2018-11-06T06:47:48.706Z,0.00
2018-11-06T06:48:48.686Z,0.00
2018-11-06T06:49:48.662Z,0.00
2018-11-06T06:50:48.630Z,0.00
2018-11-06T06:51:48.611Z,0.00
2018-11-06T06:52:48.597Z,0.00
2018-11-06T06:53:48.623Z,0.00
2018-11-06T06:54:48.555Z,0.00
2018-11-06T06:55:48.520Z,0.00
2018-11-06T06:56:48.500Z,0.00
2018-11-06T06:57:48.476Z,0.00
2018-11-06T06:58:48.452Z,0.00
2018-11-06T06:59:48.431Z,0.00
2018-11-06T07:00:48.412Z,0.00
2018-11-06T07:01:48.381Z,0.00
2018-11-06T07:02:48.357Z,0.00
2018-11-06T07:03:48.343Z,0.00
2018-11-06T07:04:48.315Z,0.00
2018-11-06T07:05:48.288Z,0.00
2018-11-06T07:06:48.253Z,0.00
2018-11-06T07:07:48.243Z,0.00
2018-11-06T07:08:48.218Z,0.00
2018-11-06T07:09:48.199Z,0.00
2018-11-06T07:10:48.172Z,0.00
2018-11-06T07:11:48.146Z,0.00
2018-11-06T07:12:48.225Z,0.00
2018-11-06T07:13:48.103Z,0.00
2018-11-06T07:14:48.093Z,0.00
2018-11-06T07:15:48.055Z,0.00
2018-11-06T07:16:48.034Z,0.00
2018-11-06T07:17:48.011Z,0.00
2018-11-06T07:18:48.102Z,0.00
2018-11-06T07:19:47.950Z,0.00
2018-11-06T07:20:47.925Z,0.00
2018-11-06T07:21:47.920Z,0.00
2018-11-06T07:22:47.890Z,0.00
2018-11-06T07:23:47.862Z,0.00
2018-11-06T07:24:47.849Z,0.00
2018-11-06T07:25:47.819Z,0.00
2018-11-06T07:26:47.800Z,0.00
2018-11-06T07:27:47.775Z,0.00
2018-11-06T07:28:47.803Z,0.00
2018-11-06T07:29:47.730Z,0.00
2018-11-06T07:30:47.704Z,0.00
2018-11-06T07:31:47.677Z,0.00
2018-11-06T07:32:47.661Z,0.00
2018-11-06T07:33:47.622Z,0.00
2018-11-06T07:34:47.790Z,0.00
2018-11-06T07:35:47.856Z,0.00
2018-11-06T07:36:47.573Z,0.00
2018-11-06T07:37:47.553Z,0.00
2018-11-06T07:38:47.516Z,0.00
2018-11-06T07:39:47.500Z,0.00
2018-11-06T07:40:47.488Z,0.00
2018-11-06T07:41:47.453Z,0.00
2018-11-06T07:42:47.427Z,0.00
2018-11-06T07:43:47.393Z,0.00
2018-11-06T07:44:47.378Z,0.00
2018-11-06T07:45:47.354Z,0.00
2018-11-06T07:46:47.334Z,0.00
2018-11-06T07:47:47.311Z,0.00
2018-11-06T07:48:47.286Z,0.00
2018-11-06T07:49:47.287Z,0.00
2018-11-06T07:50:47.249Z,0.00
2018-11-06T07:51:47.225Z,0.00
2018-11-06T07:52:47.194Z,0.00
2018-11-06T07:53:47.187Z,0.00
2018-11-06T07:54:47.152Z,0.00
2018-11-06T07:55:47.210Z,0.00
2018-11-06T07:56:47.105Z,4.00
2018-11-06T07:57:47.078Z,4.00
2018-11-06T07:58:47.060Z,0.00
2018-11-06T07:59:47.031Z,0.00
2018-11-06T08:00:47.005Z,4.00
2018-11-06T08:01:46.987Z,4.00
2018-11-06T08:02:46.962Z,8.00
2018-11-06T08:03:46.929Z,8.00
2018-11-06T08:04:46.915Z,8.00
2018-11-06T08:05:46.895Z,12.00
2018-11-06T08:06:46.864Z,16.00
2018-11-06T08:07:46.847Z,24.00
2018-11-06T08:08:46.805Z,28.00
2018-11-06T08:09:46.837Z,40.00
2018-11-06T08:10:46.763Z,56.00
2018-11-06T08:11:46.739Z,64.00
2018-11-06T08:12:46.712Z,76.00
2018-11-06T08:13:46.689Z,88.00
2018-11-06T08:14:46.711Z,96.00
2018-11-06T08:15:46.653Z,112.00
2018-11-06T08:16:46.632Z,132.00
2018-11-06T08:17:46.611Z,156.00
2018-11-06T08:18:46.594Z,180.00
2018-11-06T08:19:46.562Z,180.00
2018-11-06T08:20:46.670Z,188.00
2018-11-06T08:21:46.521Z,200.00
2018-11-06T08:22:46.480Z,212.00
2018-11-06T08:23:46.506Z,232.00
2018-11-06T08:24:46.443Z,256.00
2018-11-06T08:25:46.407Z,296.00
2018-11-06T08:26:46.412Z,340.00
2018-11-06T08:27:46.552Z,368.00
2018-11-06T08:28:46.355Z,384.00
2018-11-06T08:29:46.332Z,460.00
2018-11-06T08:30:46.461Z,520.00
2018-11-06T08:31:46.653Z,592.00
2018-11-06T08:32:46.712Z,672.00
2018-11-06T08:33:46.224Z,716.00
2018-11-06T08:34:46.215Z,732.00
2018-11-06T08:35:46.196Z,768.00
2018-11-06T08:36:46.172Z,764.00
2018-11-06T08:37:46.130Z,820.00
2018-11-06T08:38:46.124Z,892.00
2018-11-06T08:39:46.099Z,940.00
2018-11-06T08:40:46.080Z,1004.00
2018-11-06T08:41:46.051Z,1032.00
2018-11-06T08:42:46.031Z,1064.00
2018-11-06T08:43:46.010Z,1140.00
2018-11-06T08:44:45.984Z,1196.00
2018-11-06T08:45:45.961Z,1192.00
2018-11-06T08:46:45.933Z,1224.00
2018-11-06T08:47:45.910Z,1316.00
2018-11-06T08:48:45.877Z,1348.00
2018-11-06T08:49:45.863Z,540.00
2018-11-06T08:50:45.846Z,628.00
2018-11-06T08:51:45.810Z,776.00
2018-11-06T08:52:45.800Z,748.00
2018-11-06T08:53:45.779Z,756.00
2018-11-06T08:54:45.898Z,848.00
2018-11-06T08:55:45.732Z,840.00
2018-11-06T08:56:45.711Z,1024.00
2018-11-06T08:57:45.680Z,1136.00
2018-11-06T08:58:45.668Z,1268.00
2018-11-06T08:59:45.639Z,1304.00
2018-11-06T09:00:45.613Z,1292.00
2018-11-06T09:01:45.593Z,1252.00
2018-11-06T09:02:45.677Z,1200.00
2018-11-06T09:03:45.551Z,1284.00
2018-11-06T09:04:45.524Z,1264.00
2018-11-06T09:05:45.498Z,1272.00
2018-11-06T09:06:45.472Z,1428.00
2018-11-06T09:07:45.435Z,1276.00
2018-11-06T09:08:45.484Z,1468.00
2018-11-06T09:09:45.401Z,1540.00
2018-11-06T09:10:45.380Z,1784.00
2018-11-06T09:11:45.360Z,3700.00
2018-11-06T09:12:45.318Z,3864.00
2018-11-06T09:13:45.305Z,4116.00
2018-11-06T09:14:45.275Z,4412.00
2018-11-06T09:15:45.268Z,4812.00
2018-11-06T09:16:45.233Z,5032.00
2018-11-06T09:17:45.206Z,5540.00
2018-11-06T09:18:45.198Z,5944.00
2018-11-06T09:19:45.166Z,5880.00
2018-11-06T09:20:45.136Z,6016.00
2018-11-06T09:21:45.125Z,6248.00
2018-11-06T09:22:45.103Z,3076.00
2018-11-06T09:23:45.078Z,6224.00
2018-11-06T09:24:45.052Z,6528.00
2018-11-06T09:25:45.040Z,7136.00
2018-11-06T09:26:45.000Z,7716.00
2018-11-06T09:27:44.988Z,7372.00
2018-11-06T09:28:44.952Z,7080.00
2018-11-06T09:29:45.037Z,7388.00
2018-11-06T09:30:44.926Z,7640.00
2018-11-06T09:31:44.880Z,7352.00
2018-11-06T09:32:44.868Z,7348.00
2018-11-06T09:33:44.847Z,7720.00
2018-11-06T09:34:44.814Z,8016.00
2018-11-06T09:35:44.802Z,8196.00
2018-11-06T09:36:44.781Z,8152.00
2018-11-06T09:37:44.759Z,7680.00
2018-11-06T09:38:44.730Z,7156.00
2018-11-06T09:39:44.721Z,6688.00
2018-11-06T09:41:17.945Z,6296.00
2018-11-06T09:41:44.683Z,6096.00
2018-11-06T09:42:44.647Z,5788.00
2018-11-06T09:43:44.623Z,5548.00
2018-11-06T09:44:44.600Z,5216.00
2018-11-06T09:45:44.580Z,5000.00
2018-11-06T09:46:44.554Z,4972.00
2018-11-06T09:47:44.532Z,5096.00
2018-11-06T09:48:44.516Z,5248.00
2018-11-06T09:49:44.485Z,5344.00
2018-11-06T09:50:44.455Z,5232.00
2018-11-06T09:51:44.476Z,4928.00
2018-11-06T09:52:44.411Z,4724.00
2018-11-06T09:53:44.393Z,4692.00
2018-11-06T09:54:44.369Z,4792.00
2018-11-06T09:55:44.346Z,5064.00
2018-11-06T09:56:44.325Z,5504.00
2018-11-06T09:57:44.301Z,5680.00
2018-11-06T09:58:44.277Z,5964.00
2018-11-06T09:59:44.254Z,6052.00
2018-11-06T10:00:44.239Z,5800.00
2018-11-06T10:01:44.209Z,5484.00
2018-11-06T10:02:44.187Z,5768.00
2018-11-06T10:03:44.164Z,5920.00
2018-11-06T10:04:44.140Z,5880.00
2018-11-06T10:05:44.118Z,6024.00
2018-11-06T10:06:44.284Z,6108.00
2018-11-06T10:07:44.152Z,5964.00
2018-11-06T10:08:44.047Z,5912.00
2018-11-06T10:09:44.025Z,5672.00
2018-11-06T10:10:44.003Z,5536.00
2018-11-06T10:11:43.979Z,5376.00
2018-11-06T10:12:43.965Z,5388.00
2018-11-06T10:13:43.932Z,5780.00
2018-11-06T10:14:43.907Z,6068.00
2018-11-06T10:15:43.935Z,6128.00
2018-11-06T10:16:43.868Z,6532.00
2018-11-06T10:17:43.842Z,6924.00
2018-11-06T10:18:43.821Z,7240.00
2018-11-06T10:19:43.780Z,7648.00
2018-11-06T10:20:43.775Z,7808.00
2018-11-06T10:21:43.750Z,7700.00
2018-11-06T10:22:43.724Z,7672.00
2018-11-06T10:23:43.706Z,7808.00
2018-11-06T10:24:43.688Z,7848.00
2018-11-06T10:25:43.659Z,8072.00
2018-11-06T10:26:43.640Z,8344.00
2018-11-06T10:27:43.616Z,8552.00
2018-11-06T10:28:43.595Z,8732.00
2018-11-06T10:29:43.569Z,8332.00
2018-11-06T10:30:43.562Z,8280.00
2018-11-06T10:31:43.537Z,8536.00
2018-11-06T10:32:43.486Z,8596.00
2018-11-06T10:33:43.481Z,8076.00
2018-11-06T10:34:43.462Z,7840.00
2018-11-06T10:35:43.430Z,7408.00
2018-11-06T10:36:43.402Z,7120.00
2018-11-06T10:37:43.388Z,7120.00
2018-11-06T10:38:43.350Z,7444.00
2018-11-06T10:39:43.325Z,7712.00
2018-11-06T10:40:43.322Z,8156.00
2018-11-06T10:41:43.297Z,8148.00
2018-11-06T10:42:43.273Z,8352.00
2018-11-06T10:43:43.257Z,8724.00
2018-11-06T10:44:43.230Z,8960.00
2018-11-06T10:45:43.212Z,9008.00
2018-11-06T10:46:43.167Z,9216.00
2018-11-06T10:47:43.159Z,9260.00
2018-11-06T10:48:43.136Z,8940.00
2018-11-06T10:49:43.117Z,9368.00
2018-11-06T10:50:43.101Z,10144.00
2018-11-06T10:51:43.163Z,10480.00
2018-11-06T10:52:43.043Z,10864.00
2018-11-06T10:53:43.023Z,11412.00
2018-11-06T10:54:42.999Z,12452.00
2018-11-06T10:55:42.981Z,12932.00
2018-11-06T10:56:42.965Z,14528.00
2018-11-06T10:57:42.933Z,28768.00
2018-11-06T10:58:42.896Z,33760.00
2018-11-06T10:59:42.889Z,19040.00
2018-11-06T11:00:42.866Z,21824.00
2018-11-06T11:01:42.849Z,13484.00
2018-11-06T11:02:42.829Z,15004.00
2018-11-06T11:03:42.806Z,15960.00
2018-11-06T11:04:42.780Z,21536.00
2018-11-06T11:05:42.766Z,20224.00
2018-11-06T11:06:42.740Z,19296.00
2018-11-06T11:07:42.718Z,21376.00
2018-11-06T11:08:42.696Z,19776.00
2018-11-06T11:09:42.686Z,24352.00
2018-11-06T11:10:42.658Z,24384.00
2018-11-06T11:11:42.633Z,16492.00
2018-11-06T11:12:42.677Z,15336.00
2018-11-06T11:13:42.589Z,16656.00
2018-11-06T11:14:42.576Z,17856.00
2018-11-06T11:15:42.555Z,16488.00
2018-11-06T11:16:42.542Z,17088.00
2018-11-06T11:17:42.513Z,15900.00
2018-11-06T11:18:42.488Z,15844.00
2018-11-06T11:19:42.470Z,16112.00
2018-11-06T11:20:42.438Z,15444.00
2018-11-06T11:21:42.411Z,16172.00
2018-11-06T11:22:42.409Z,17568.00
2018-11-06T11:23:42.372Z,19424.00
2018-11-06T11:24:42.361Z,21056.00
2018-11-06T11:25:42.440Z,20704.00
2018-11-06T11:26:42.306Z,21088.00
2018-11-06T11:27:42.300Z,21088.00
2018-11-06T11:28:42.286Z,20640.00
2018-11-06T11:29:42.267Z,20960.00
2018-11-06T11:30:42.240Z,22688.00
2018-11-06T11:31:42.258Z,22528.00
2018-11-06T11:32:42.204Z,20768.00
2018-11-06T11:33:42.179Z,20192.00
2018-11-06T11:34:42.156Z,20960.00
2018-11-06T11:35:42.141Z,21600.00
2018-11-06T11:36:42.115Z,20960.00
2018-11-06T11:37:42.158Z,21408.00
2018-11-06T11:38:42.078Z,24000.00
2018-11-06T11:39:42.046Z,24000.00
2018-11-06T11:40:42.036Z,24928.00
2018-11-06T11:41:42.016Z,28384.00
2018-11-06T11:42:42.003Z,32704.00
2018-11-06T11:43:41.978Z,29568.00
2018-11-06T11:44:41.963Z,28704.00
2018-11-06T11:45:41.960Z,30208.00
2018-11-06T11:46:41.903Z,25792.00
2018-11-06T11:47:41.901Z,23872.00
2018-11-06T11:48:41.881Z,23712.00
2018-11-06T11:49:41.862Z,24416.00
2018-11-06T11:50:41.841Z,24864.00
2018-11-06T11:51:41.811Z,27744.00
2018-11-06T11:52:41.806Z,25664.00
2018-11-06T11:53:41.772Z,25024.00
2018-11-06T11:54:41.753Z,23648.00
2018-11-06T11:55:41.735Z,27680.00
2018-11-06T11:56:41.737Z,23904.00
2018-11-06T11:57:41.718Z,26688.00
2018-11-06T11:58:41.704Z,32832.00
2018-11-06T11:59:41.678Z,25408.00
2018-11-06T12:00:41.660Z,26784.00
2018-11-06T12:01:41.670Z,26176.00
2018-11-06T12:02:41.624Z,28128.00
2018-11-06T12:03:41.609Z,27168.00
2018-11-06T12:04:41.593Z,32032.00
2018-11-06T12:05:41.555Z,22560.00
2018-11-06T12:06:41.542Z,23008.00
2018-11-06T12:07:41.543Z,25024.00
2018-11-06T12:08:41.498Z,33984.00
2018-11-06T12:09:41.500Z,35136.00
2018-11-06T12:10:41.486Z,32640.00
2018-11-06T12:11:41.467Z,30336.00
2018-11-06T12:12:41.442Z,30272.00
2018-11-06T12:13:41.413Z,28192.00
2018-11-06T12:14:41.414Z,29184.00
2018-11-06T12:15:41.395Z,29792.00
2018-11-06T12:16:41.363Z,28512.00
2018-11-06T12:17:41.368Z,28224.00
2018-11-06T12:18:41.339Z,28608.00
2018-11-06T12:19:41.328Z,27136.00
2018-11-06T12:20:41.300Z,25984.00
2018-11-06T12:21:41.295Z,27616.00
2018-11-06T12:22:41.277Z,32384.00
2018-11-06T12:23:41.254Z,31520.00
2018-11-06T12:24:41.423Z,29696.00
2018-11-06T12:25:41.355Z,31232.00
2018-11-06T12:26:41.209Z,33408.00
2018-11-06T12:27:41.185Z,33056.00
2018-11-06T12:28:41.177Z,32256.00
2018-11-06T12:29:41.152Z,29728.00
2018-11-06T12:30:41.121Z,30720.00
2018-11-06T12:31:41.122Z,30368.00
2018-11-06T12:32:41.153Z,34976.00
2018-11-06T12:33:41.086Z,28672.00
2018-11-06T12:34:41.050Z,36608.00
2018-11-06T12:35:41.051Z,35968.00
2018-11-06T12:36:41.187Z,31552.00
2018-11-06T12:37:41.018Z,32224.00
2018-11-06T12:38:41.007Z,31680.00
2018-11-06T12:39:40.987Z,32288.00
2018-11-06T12:40:40.968Z,31392.00
2018-11-06T12:41:40.952Z,33120.00
2018-11-06T12:42:40.936Z,33504.00
2018-11-06T12:43:41.060Z,31488.00
2018-11-06T12:44:40.897Z,18496.00
2018-11-06T12:45:40.886Z,25760.00
2018-11-06T12:46:40.865Z,34240.00
2018-11-06T12:47:40.852Z,34208.00